sensor_id;sensor_type;location;lat;lon;timestamp;pressure;altitude;pressure_sealevel;temperature;humidity
68376;BME280;55318;52.068;5.188;2023-01-30T00:00:10;101775.0;;;8.52;93.49
68376;BME280;55318;52.068;5.188;2023-01-30T00:03:24;101774.0;;;8.39;93.95
68376;BME280;55318;52.068;5.188;2023-01-30T00:05:01;101768.0;;;8.35;94.09
68376;BME280;55318;52.068;5.188;2023-01-30T00:06:38;101767.0;;;8.47;94.04
68376;BME280;55318;52.068;5.188;2023-01-30T00:09:54;101768.0;;;8.36;94.51
68376;BME280;55318;52.068;5.188;2023-01-30T00:13:10;101782.0;;;8.52;94.08
68376;BME280;55318;52.068;5.188;2023-01-30T00:14:47;101785.0;;;8.58;93.77
68376;BME280;55318;52.068;5.188;2023-01-30T00:18:00;101773.0;;;8.53;94.05
68376;BME280;55318;52.068;5.188;2023-01-30T00:19:37;101766.0;;;8.48;94.4
68376;BME280;55318;52.068;5.188;2023-01-30T00:21:14;101745.0;;;8.6;94.04
68376;BME280;55318;52.068;5.188;2023-01-30T00:24:27;101744.0;;;8.63;93.78
68376;BME280;55318;52.068;5.188;2023-01-30T00:26:05;101747.0;;;8.65;93.74
68376;BME280;55318;52.068;5.188;2023-01-30T00:27:42;101743.0;;;8.71;93.43
68376;BME280;55318;52.068;5.188;2023-01-30T00:30:56;101743.0;;;8.75;93.3
68376;BME280;55318;52.068;5.188;2023-01-30T00:32:32;101740.0;;;8.81;92.97
68376;BME280;55318;52.068;5.188;2023-01-30T00:34:09;101732.0;;;8.73;92.95
68376;BME280;55318;52.068;5.188;2023-01-30T00:35:47;101732.0;;;8.89;92.69
68376;BME280;55318;52.068;5.188;2023-01-30T00:39:02;101730.0;;;8.9;92.61
68376;BME280;55318;52.068;5.188;2023-01-30T00:40:39;101726.0;;;8.83;92.56
68376;BME280;55318;52.068;5.188;2023-01-30T00:47:29;101699.0;;;8.82;92.94
68376;BME280;55318;52.068;5.188;2023-01-30T00:49:07;101705.0;;;8.72;93.22
68376;BME280;55318;52.068;5.188;2023-01-30T00:50:43;101692.0;;;8.75;93.5
68376;BME280;55318;52.068;5.188;2023-01-30T00:53:57;101683.0;;;8.81;93.04
68376;BME280;55318;52.068;5.188;2023-01-30T00:55:33;101686.0;;;8.73;93.43
68376;BME280;55318;52.068;5.188;2023-01-30T00:57:09;101697.0;;;8.86;92.87
68376;BME280;55318;52.068;5.188;2023-01-30T00:58:45;101692.0;;;8.9;92.76
68376;BME280;55318;52.068;5.188;2023-01-30T01:01:58;101693.0;;;8.9;92.88
68376;BME280;55318;52.068;5.188;2023-01-30T01:03:36;101697.0;;;8.96;92.47
68376;BME280;55318;52.068;5.188;2023-01-30T01:05:13;101694.0;;;9.05;92.03
68376;BME280;55318;52.068;5.188;2023-01-30T01:08:26;101689.0;;;9.06;92.14
68376;BME280;55318;52.068;5.188;2023-01-30T01:10:02;101683.0;;;9.05;92.04
68376;BME280;55318;52.068;5.188;2023-01-30T01:11:39;101671.0;;;8.99;92.04
68376;BME280;55318;52.068;5.188;2023-01-30T01:14:53;101663.0;;;9.07;91.72
68376;BME280;55318;52.068;5.188;2023-01-30T01:16:31;101659.0;;;9.01;92.23
68376;BME280;55318;52.068;5.188;2023-01-30T01:18:09;101653.0;;;8.86;92.84
68376;BME280;55318;52.068;5.188;2023-01-30T01:19:45;101655.0;;;9.05;91.88
68376;BME280;55318;52.068;5.188;2023-01-30T01:22:59;101655.0;;;9.07;92.63
68376;BME280;55318;52.068;5.188;2023-01-30T01:24:35;101645.0;;;9.13;92.36
68376;BME280;55318;52.068;5.188;2023-01-30T01:26:12;101640.0;;;9.14;92.64
68376;BME280;55318;52.068;5.188;2023-01-30T01:29:27;101641.0;;;9.17;92.64
68376;BME280;55318;52.068;5.188;2023-01-30T01:31:08;101637.0;;;9.17;92.52
68376;BME280;55318;52.068;5.188;2023-01-30T01:32:45;101645.0;;;9.06;93.25
68376;BME280;55318;52.068;5.188;2023-01-30T01:34:22;101643.0;;;9.16;92.85
68376;BME280;55318;52.068;5.188;2023-01-30T01:37:35;101633.0;;;9.17;93.08
68376;BME280;55318;52.068;5.188;2023-01-30T01:39:12;101623.0;;;9.31;92.48
68376;BME280;55318;52.068;5.188;2023-01-30T01:41:05;101618.0;;;9.26;92.53
68376;BME280;55318;52.068;5.188;2023-01-30T01:42:42;101620.0;;;9.35;92.07
68376;BME280;55318;52.068;5.188;2023-01-30T01:45:57;101624.0;;;9.39;91.55
68376;BME280;55318;52.068;5.188;2023-01-30T01:47:40;101630.0;;;9.36;91.5
68376;BME280;55318;52.068;5.188;2023-01-30T01:49:21;101626.0;;;9.43;91.55
68376;BME280;55318;52.068;5.188;2023-01-30T01:51:02;101627.0;;;9.56;91.08
68376;BME280;55318;52.068;5.188;2023-01-30T01:54:23;101626.0;;;9.48;90.89
68376;BME280;55318;52.068;5.188;2023-01-30T01:56:03;101630.0;;;9.48;90.9
68376;BME280;55318;52.068;5.188;2023-01-30T01:57:45;101631.0;;;9.58;90.73
68376;BME280;55318;52.068;5.188;2023-01-30T01:59:27;101630.0;;;9.58;91.13
68376;BME280;55318;52.068;5.188;2023-01-30T02:02:45;101632.0;;;9.56;91.41
68376;BME280;55318;52.068;5.188;2023-01-30T02:05:01;101622.0;;;9.38;92.13
68376;BME280;55318;52.068;5.188;2023-01-30T02:06:40;101624.0;;;9.48;91.91
68376;BME280;55318;52.068;5.188;2023-01-30T02:08:21;101620.0;;;9.47;92.24
68376;BME280;55318;52.068;5.188;2023-01-30T02:10:00;101614.0;;;9.56;92.11
68376;BME280;55318;52.068;5.188;2023-01-30T02:13:21;101619.0;;;9.51;92.28
68376;BME280;55318;52.068;5.188;2023-01-30T02:14:59;101620.0;;;9.41;92.78
68376;BME280;55318;52.068;5.188;2023-01-30T02:16:36;101633.0;;;9.34;92.92
68376;BME280;55318;52.068;5.188;2023-01-30T02:18:14;101630.0;;;9.42;92.93
68376;BME280;55318;52.068;5.188;2023-01-30T02:21:52;101622.0;;;9.24;93.9
68376;BME280;55318;52.068;5.188;2023-01-30T02:24:28;101618.0;;;9.34;93.8
68376;BME280;55318;52.068;5.188;2023-01-30T02:25:22;101625.0;;;9.23;93.95
68376;BME280;55318;52.068;5.188;2023-01-30T02:32:35;101625.0;;;9.18;94.57
68376;BME280;55318;52.068;5.188;2023-01-30T02:34:31;101622.0;;;9.19;94.66
68376;BME280;55318;52.068;5.188;2023-01-30T02:36:20;101617.0;;;9.16;94.73
68376;BME280;55318;52.068;5.188;2023-01-30T02:38:14;101615.0;;;9.25;94.59
68376;BME280;55318;52.068;5.188;2023-01-30T02:40:03;101611.0;;;9.05;95.11
68376;BME280;55318;52.068;5.188;2023-01-30T02:41:51;101605.0;;;9.23;95.01
68376;BME280;55318;52.068;5.188;2023-01-30T02:43:42;101611.0;;;9.14;95.11
68376;BME280;55318;52.068;5.188;2023-01-30T02:47:12;101600.0;;;9.1;95.17
68376;BME280;55318;52.068;5.188;2023-01-30T02:48:55;101607.0;;;9.1;95.19
68376;BME280;55318;52.068;5.188;2023-01-30T02:50:38;101605.0;;;9.23;94.72
68376;BME280;55318;52.068;5.188;2023-01-30T02:52:18;101602.0;;;9.22;94.74
68376;BME280;55318;52.068;5.188;2023-01-30T02:53:57;101602.0;;;9.14;94.82
68376;BME280;55318;52.068;5.188;2023-01-30T02:57:19;101606.0;;;9.06;95.53
68376;BME280;55318;52.068;5.188;2023-01-30T02:58:59;101611.0;;;9.11;95.38
68376;BME280;55318;52.068;5.188;2023-01-30T03:00:55;101598.0;;;9.1;95.37
68376;BME280;55318;52.068;5.188;2023-01-30T03:02:50;101605.0;;;9.16;95.15
68376;BME280;55318;52.068;5.188;2023-01-30T03:04:51;101606.0;;;9.23;94.72
68376;BME280;55318;52.068;5.188;2023-01-30T03:06:46;101600.0;;;9.31;94.54
68376;BME280;55318;52.068;5.188;2023-01-30T03:08:40;101598.0;;;9.1;94.82
68376;BME280;55318;52.068;5.188;2023-01-30T03:12:19;101593.0;;;8.99;95.7
68376;BME280;55318;52.068;5.188;2023-01-30T03:14:07;101585.0;;;8.93;95.78
68376;BME280;55318;52.068;5.188;2023-01-30T03:15:54;101580.0;;;9.1;95.05
68376;BME280;55318;52.068;5.188;2023-01-30T03:17:34;101582.0;;;9.17;95.2
68376;BME280;55318;52.068;5.188;2023-01-30T03:19:13;101578.0;;;9.18;95.05
68376;BME280;55318;52.068;5.188;2023-01-30T03:22:27;101578.0;;;9.32;94.39
68376;BME280;55318;52.068;5.188;2023-01-30T03:24:04;101575.0;;;9.24;94.62
68376;BME280;55318;52.068;5.188;2023-01-30T03:25:42;101575.0;;;9.17;95.13
68376;BME280;55318;52.068;5.188;2023-01-30T03:27:21;101567.0;;;9.14;95.44
68376;BME280;55318;52.068;5.188;2023-01-30T03:30:37;101571.0;;;9.07;95.86
68376;BME280;55318;52.068;5.188;2023-01-30T03:32:14;101580.0;;;9.07;95.67
68376;BME280;55318;52.068;5.188;2023-01-30T03:33:51;101575.0;;;9.18;95.34
68376;BME280;55318;52.068;5.188;2023-01-30T03:37:05;101563.0;;;9.14;95.23
68376;BME280;55318;52.068;5.188;2023-01-30T03:38:42;101562.0;;;9.26;95.16
68376;BME280;55318;52.068;5.188;2023-01-30T03:40:19;101567.0;;;9.17;95.12
68376;BME280;55318;52.068;5.188;2023-01-30T03:41:56;101560.0;;;9.25;95.11
68376;BME280;55318;52.068;5.188;2023-01-30T03:45:11;101565.0;;;9.3;94.6
68376;BME280;55318;52.068;5.188;2023-01-30T03:46:47;101567.0;;;9.24;95.0
68376;BME280;55318;52.068;5.188;2023-01-30T03:48:23;101572.0;;;9.42;94.4
68376;BME280;55318;52.068;5.188;2023-01-30T03:51:36;101563.0;;;9.39;94.46
68376;BME280;55318;52.068;5.188;2023-01-30T03:53:13;101559.0;;;9.43;94.5
68376;BME280;55318;52.068;5.188;2023-01-30T03:54:50;101563.0;;;9.3;94.57
68376;BME280;55318;52.068;5.188;2023-01-30T03:58:04;101564.0;;;9.35;94.66
68376;BME280;55318;52.068;5.188;2023-01-30T03:59:42;101562.0;;;9.43;94.35
68376;BME280;55318;52.068;5.188;2023-01-30T04:01:19;101568.0;;;9.31;94.72
68376;BME280;55318;52.068;5.188;2023-01-30T04:02:56;101564.0;;;9.44;93.94
68376;BME280;55318;52.068;5.188;2023-01-30T04:06:10;101565.0;;;9.5;93.96
68376;BME280;55318;52.068;5.188;2023-01-30T04:07:47;101569.0;;;9.53;93.76
68376;BME280;55318;52.068;5.188;2023-01-30T04:09:24;101555.0;;;9.43;93.75
68376;BME280;55318;52.068;5.188;2023-01-30T04:12:38;101568.0;;;9.36;93.95
68376;BME280;55318;52.068;5.188;2023-01-30T04:14:16;101568.0;;;9.44;94.08
68376;BME280;55318;52.068;5.188;2023-01-30T04:16:13;101572.0;;;9.39;93.86
68376;BME280;55318;52.068;5.188;2023-01-30T04:17:51;101573.0;;;9.4;93.7
68376;BME280;55318;52.068;5.188;2023-01-30T04:21:04;101574.0;;;9.39;93.74
68376;BME280;55318;52.068;5.188;2023-01-30T04:22:41;101570.0;;;9.56;93.25
68376;BME280;55318;52.068;5.188;2023-01-30T04:24:18;101576.0;;;9.41;93.6
68376;BME280;55318;52.068;5.188;2023-01-30T04:25:55;101585.0;;;9.49;93.5
68376;BME280;55318;52.068;5.188;2023-01-30T04:29:09;101577.0;;;9.4;93.7
68376;BME280;55318;52.068;5.188;2023-01-30T04:30:47;101578.0;;;9.53;93.36
68376;BME280;55318;52.068;5.188;2023-01-30T04:32:24;101581.0;;;9.44;92.97
68376;BME280;55318;52.068;5.188;2023-01-30T04:35:38;101584.0;;;9.46;92.92
68376;BME280;55318;52.068;5.188;2023-01-30T04:37:15;101581.0;;;9.6;92.41
68376;BME280;55318;52.068;5.188;2023-01-30T04:38:52;101577.0;;;9.5;91.78
68376;BME280;55318;52.068;5.188;2023-01-30T04:40:29;101589.0;;;9.53;92.34
68376;BME280;55318;52.068;5.188;2023-01-30T04:43:42;101587.0;;;9.69;91.8
68376;BME280;55318;52.068;5.188;2023-01-30T04:45:19;101592.0;;;9.51;92.02
68376;BME280;55318;52.068;5.188;2023-01-30T04:46:56;101583.0;;;9.63;91.09
68376;BME280;55318;52.068;5.188;2023-01-30T04:50:10;101602.0;;;9.55;91.11
68376;BME280;55318;52.068;5.188;2023-01-30T04:51:47;101596.0;;;9.47;90.29
68376;BME280;55318;52.068;5.188;2023-01-30T04:53:25;101582.0;;;9.5;89.87
68376;BME280;55318;52.068;5.188;2023-01-30T04:56:39;101597.0;;;9.48;89.99
68376;BME280;55318;52.068;5.188;2023-01-30T04:58:15;101587.0;;;9.6;89.19
68376;BME280;55318;52.068;5.188;2023-01-30T04:59:53;101585.0;;;9.48;88.84
68376;BME280;55318;52.068;5.188;2023-01-30T05:01:33;101578.0;;;9.61;88.07
68376;BME280;55318;52.068;5.188;2023-01-30T05:04:48;101577.0;;;9.58;87.51
68376;BME280;55318;52.068;5.188;2023-01-30T05:06:25;101575.0;;;9.42;86.99
68376;BME280;55318;52.068;5.188;2023-01-30T05:08:02;101583.0;;;9.33;86.78
68376;BME280;55318;52.068;5.188;2023-01-30T05:11:17;101588.0;;;9.41;86.58
68376;BME280;55318;52.068;5.188;2023-01-30T05:12:53;101586.0;;;9.39;86.47
68376;BME280;55318;52.068;5.188;2023-01-30T05:14:31;101586.0;;;9.55;86.31
68376;BME280;55318;52.068;5.188;2023-01-30T05:16:08;101575.0;;;9.43;86.16
68376;BME280;55318;52.068;5.188;2023-01-30T05:19:22;101590.0;;;9.44;86.05
68376;BME280;55318;52.068;5.188;2023-01-30T05:21:03;101598.0;;;9.51;85.45
68376;BME280;55318;52.068;5.188;2023-01-30T05:22:41;101593.0;;;9.52;85.54
68376;BME280;55318;52.068;5.188;2023-01-30T05:25:55;101592.0;;;9.44;85.61
68376;BME280;55318;52.068;5.188;2023-01-30T05:27:33;101582.0;;;9.52;85.05
68376;BME280;55318;52.068;5.188;2023-01-30T05:29:10;101595.0;;;9.39;85.43
68376;BME280;55318;52.068;5.188;2023-01-30T05:30:47;101603.0;;;9.53;84.75
68376;BME280;55318;52.068;5.188;2023-01-30T05:34:03;101605.0;;;9.41;84.88
68376;BME280;55318;52.068;5.188;2023-01-30T05:35:45;101609.0;;;9.4;84.74
68376;BME280;55318;52.068;5.188;2023-01-30T05:37:23;101598.0;;;9.53;84.44
68376;BME280;55318;52.068;5.188;2023-01-30T05:40:37;101600.0;;;9.39;84.33
68376;BME280;55318;52.068;5.188;2023-01-30T05:42:14;101603.0;;;9.31;84.32
68376;BME280;55318;52.068;5.188;2023-01-30T05:43:51;101599.0;;;9.23;84.66
68376;BME280;55318;52.068;5.188;2023-01-30T05:45:28;101615.0;;;9.25;84.58
68376;BME280;55318;52.068;5.188;2023-01-30T05:48:42;101626.0;;;9.24;84.03
68376;BME280;55318;52.068;5.188;2023-01-30T05:50:19;101621.0;;;9.19;83.91
68376;BME280;55318;52.068;5.188;2023-01-30T05:51:56;101613.0;;;9.23;83.83
68376;BME280;55318;52.068;5.188;2023-01-30T05:55:11;101613.0;;;9.1;83.25
68376;BME280;55318;52.068;5.188;2023-01-30T05:56:48;101614.0;;;9.01;83.31
68376;BME280;55318;52.068;5.188;2023-01-30T05:58:25;101614.0;;;8.97;83.54
68376;BME280;55318;52.068;5.188;2023-01-30T06:00:05;101607.0;;;8.81;83.33
68376;BME280;55318;52.068;5.188;2023-01-30T06:03:19;101601.0;;;8.85;83.23
68376;BME280;55318;52.068;5.188;2023-01-30T06:04:56;101601.0;;;8.89;82.86
68376;BME280;55318;52.068;5.188;2023-01-30T06:06:33;101618.0;;;8.92;82.7
68376;BME280;55318;52.068;5.188;2023-01-30T06:09:48;101608.0;;;8.89;82.64
68376;BME280;55318;52.068;5.188;2023-01-30T06:11:24;101614.0;;;8.94;82.4
68376;BME280;55318;52.068;5.188;2023-01-30T06:13:01;101613.0;;;8.86;82.03
68376;BME280;55318;52.068;5.188;2023-01-30T06:14:38;101616.0;;;8.82;81.95
68376;BME280;55318;52.068;5.188;2023-01-30T06:17:54;101621.0;;;8.85;81.52
68376;BME280;55318;52.068;5.188;2023-01-30T06:19:32;101617.0;;;8.94;81.19
68376;BME280;55318;52.068;5.188;2023-01-30T06:21:09;101620.0;;;8.76;81.14
68376;BME280;55318;52.068;5.188;2023-01-30T06:24:25;101621.0;;;8.74;81.36
68376;BME280;55318;52.068;5.188;2023-01-30T06:26:01;101625.0;;;8.63;81.3
68376;BME280;55318;52.068;5.188;2023-01-30T06:27:38;101638.0;;;8.61;81.44
68376;BME280;55318;52.068;5.188;2023-01-30T06:29:15;101633.0;;;8.66;81.39
68376;BME280;55318;52.068;5.188;2023-01-30T06:32:30;101633.0;;;8.61;80.95
68376;BME280;55318;52.068;5.188;2023-01-30T06:34:07;101628.0;;;8.43;81.22
68376;BME280;55318;52.068;5.188;2023-01-30T06:35:47;101631.0;;;8.35;81.41
68376;BME280;55318;52.068;5.188;2023-01-30T06:39:01;101631.0;;;8.47;81.02
68376;BME280;55318;52.068;5.188;2023-01-30T06:40:39;101646.0;;;8.32;81.24
68376;BME280;55318;52.068;5.188;2023-01-30T06:42:17;101632.0;;;8.43;80.67
68376;BME280;55318;52.068;5.188;2023-01-30T06:43:54;101636.0;;;8.39;80.91
68376;BME280;55318;52.068;5.188;2023-01-30T06:47:08;101625.0;;;8.45;80.66
68376;BME280;55318;52.068;5.188;2023-01-30T06:48:44;101630.0;;;8.33;80.7
68376;BME280;55318;52.068;5.188;2023-01-30T06:50:23;101638.0;;;8.4;80.22
68376;BME280;55318;52.068;5.188;2023-01-30T06:53:39;101632.0;;;8.38;80.19
68376;BME280;55318;52.068;5.188;2023-01-30T06:55:18;101638.0;;;8.34;79.98
68376;BME280;55318;52.068;5.188;2023-01-30T06:56:55;101649.0;;;8.31;80.12
68376;BME280;55318;52.068;5.188;2023-01-30T06:58:32;101647.0;;;8.26;79.74
68376;BME280;55318;52.068;5.188;2023-01-30T07:01:50;101646.0;;;8.35;79.64
68376;BME280;55318;52.068;5.188;2023-01-30T07:03:27;101643.0;;;8.16;79.47
68376;BME280;55318;52.068;5.188;2023-01-30T07:05:06;101659.0;;;8.22;78.69
68376;BME280;55318;52.068;5.188;2023-01-30T07:08:22;101662.0;;;8.01;78.3
68376;BME280;55318;52.068;5.188;2023-01-30T07:10:00;101667.0;;;7.97;78.52
68376;BME280;55318;52.068;5.188;2023-01-30T07:11:37;101666.0;;;8.0;77.55
68376;BME280;55318;52.068;5.188;2023-01-30T07:13:14;101663.0;;;8.1;77.55
68376;BME280;55318;52.068;5.188;2023-01-30T07:16:29;101672.0;;;7.99;77.16
68376;BME280;55318;52.068;5.188;2023-01-30T07:18:07;101676.0;;;7.98;77.02
68376;BME280;55318;52.068;5.188;2023-01-30T07:19:44;101695.0;;;8.05;76.53
68376;BME280;55318;52.068;5.188;2023-01-30T07:22:59;101688.0;;;8.05;76.59
68376;BME280;55318;52.068;5.188;2023-01-30T07:24:36;101683.0;;;8.08;76.48
68376;BME280;55318;52.068;5.188;2023-01-30T07:26:13;101687.0;;;8.09;76.63
68376;BME280;55318;52.068;5.188;2023-01-30T07:27:51;101685.0;;;8.02;76.62
68376;BME280;55318;52.068;5.188;2023-01-30T07:31:04;101681.0;;;7.89;76.66
68376;BME280;55318;52.068;5.188;2023-01-30T07:32:42;101685.0;;;7.96;76.67
68376;BME280;55318;52.068;5.188;2023-01-30T07:34:19;101687.0;;;7.96;76.33
68376;BME280;55318;52.068;5.188;2023-01-30T07:37:33;101693.0;;;7.94;75.95
68376;BME280;55318;52.068;5.188;2023-01-30T07:39:10;101688.0;;;7.94;76.25
68376;BME280;55318;52.068;5.188;2023-01-30T07:40:47;101681.0;;;8.01;76.05
68376;BME280;55318;52.068;5.188;2023-01-30T07:44:01;101685.0;;;8.14;75.49
68376;BME280;55318;52.068;5.188;2023-01-30T07:45:40;101684.0;;;8.03;75.69
68376;BME280;55318;52.068;5.188;2023-01-30T07:47:19;101705.0;;;7.98;75.83
68376;BME280;55318;52.068;5.188;2023-01-30T07:48:55;101695.0;;;8.0;76.08
68376;BME280;55318;52.068;5.188;2023-01-30T07:52:09;101696.0;;;8.1;75.98
68376;BME280;55318;52.068;5.188;2023-01-30T07:53:48;101687.0;;;8.16;75.58
68376;BME280;55318;52.068;5.188;2023-01-30T07:55:26;101705.0;;;8.14;75.42
68376;BME280;55318;52.068;5.188;2023-01-30T07:58:40;101692.0;;;7.99;75.92
68376;BME280;55318;52.068;5.188;2023-01-30T08:00:18;101713.0;;;8.01;75.86
68376;BME280;55318;52.068;5.188;2023-01-30T08:01:57;101737.0;;;8.03;76.33
68376;BME280;55318;52.068;5.188;2023-01-30T08:03:34;101713.0;;;8.07;76.13
68376;BME280;55318;52.068;5.188;2023-01-30T08:06:48;101711.0;;;8.11;76.25
68376;BME280;55318;52.068;5.188;2023-01-30T08:08:25;101712.0;;;8.31;76.09
68376;BME280;55318;52.068;5.188;2023-01-30T08:10:04;101702.0;;;8.28;75.37
68376;BME280;55318;52.068;5.188;2023-01-30T08:13:18;101698.0;;;8.41;74.88
68376;BME280;55318;52.068;5.188;2023-01-30T08:14:54;101699.0;;;8.4;74.97
68376;BME280;55318;52.068;5.188;2023-01-30T08:16:33;101702.0;;;8.42;74.3
68376;BME280;55318;52.068;5.188;2023-01-30T08:18:10;101700.0;;;8.6;74.37
68376;BME280;55318;52.068;5.188;2023-01-30T08:21:24;101690.0;;;8.67;74.27
68376;BME280;55318;52.068;5.188;2023-01-30T08:23:01;101714.0;;;8.8;73.77
68376;BME280;55318;52.068;5.188;2023-01-30T08:24:38;101709.0;;;8.91;72.84
68376;BME280;55318;52.068;5.188;2023-01-30T08:27:51;101715.0;;;9.09;72.41
68376;BME280;55318;52.068;5.188;2023-01-30T08:29:28;101714.0;;;9.3;72.09
68376;BME280;55318;52.068;5.188;2023-01-30T08:31:08;101717.0;;;9.47;71.89
68376;BME280;55318;52.068;5.188;2023-01-30T08:32:46;101721.0;;;9.56;71.28
68376;BME280;55318;52.068;5.188;2023-01-30T08:36:00;101723.0;;;9.6;71.19
68376;BME280;55318;52.068;5.188;2023-01-30T08:37:37;101724.0;;;9.57;70.02
68376;BME280;55318;52.068;5.188;2023-01-30T08:39:14;101730.0;;;9.8;70.0
68376;BME280;55318;52.068;5.188;2023-01-30T08:42:42;101734.0;;;9.83;69.22
68376;BME280;55318;52.068;5.188;2023-01-30T08:44:20;101730.0;;;9.75;69.8
68376;BME280;55318;52.068;5.188;2023-01-30T08:45:58;101755.0;;;9.86;69.73
68376;BME280;55318;52.068;5.188;2023-01-30T08:47:35;101752.0;;;9.73;69.39
68376;BME280;55318;52.068;5.188;2023-01-30T08:50:50;101750.0;;;9.64;69.92
68376;BME280;55318;52.068;5.188;2023-01-30T08:52:27;101755.0;;;9.59;70.61
68376;BME280;55318;52.068;5.188;2023-01-30T08:54:06;101763.0;;;9.73;70.36
68376;BME280;55318;52.068;5.188;2023-01-30T08:55:43;101780.0;;;9.5;69.86
68376;BME280;55318;52.068;5.188;2023-01-30T08:58:57;101759.0;;;9.49;70.77
68376;BME280;55318;52.068;5.188;2023-01-30T09:00:34;101771.0;;;9.28;71.67
68376;BME280;55318;52.068;5.188;2023-01-30T09:02:11;101777.0;;;9.19;71.61
68376;BME280;55318;52.068;5.188;2023-01-30T09:05:26;101777.0;;;9.08;72.41
68376;BME280;55318;52.068;5.188;2023-01-30T09:07:03;101792.0;;;9.06;71.88
68376;BME280;55318;52.068;5.188;2023-01-30T09:08:39;101784.0;;;8.98;72.59
68376;BME280;55318;52.068;5.188;2023-01-30T09:11:54;101778.0;;;8.98;72.98
68376;BME280;55318;52.068;5.188;2023-01-30T09:13:33;101777.0;;;8.89;73.22
68376;BME280;55318;52.068;5.188;2023-01-30T09:15:10;101787.0;;;8.89;73.75
68376;BME280;55318;52.068;5.188;2023-01-30T09:16:47;101788.0;;;8.91;73.48
68376;BME280;55318;52.068;5.188;2023-01-30T09:20:03;101792.0;;;8.98;73.55
68376;BME280;55318;52.068;5.188;2023-01-30T09:21:40;101788.0;;;8.98;73.37
68376;BME280;55318;52.068;5.188;2023-01-30T09:23:17;101798.0;;;8.83;73.11
68376;BME280;55318;52.068;5.188;2023-01-30T09:26:30;101803.0;;;8.86;73.49
68376;BME280;55318;52.068;5.188;2023-01-30T09:28:08;101815.0;;;8.78;73.86
68376;BME280;55318;52.068;5.188;2023-01-30T09:29:44;101802.0;;;8.98;73.41
68376;BME280;55318;52.068;5.188;2023-01-30T09:31:22;101797.0;;;8.89;73.78
68376;BME280;55318;52.068;5.188;2023-01-30T09:34:36;101807.0;;;8.92;73.12
68376;BME280;55318;52.068;5.188;2023-01-30T09:36:13;101803.0;;;9.11;73.73
68376;BME280;55318;52.068;5.188;2023-01-30T09:37:52;101806.0;;;9.14;73.25
68376;BME280;55318;52.068;5.188;2023-01-30T09:41:19;101795.0;;;9.1;73.7
68376;BME280;55318;52.068;5.188;2023-01-30T09:43:38;101816.0;;;9.08;73.28
68376;BME280;55318;52.068;5.188;2023-01-30T09:45:36;101825.0;;;9.16;73.11
68376;BME280;55318;52.068;5.188;2023-01-30T09:47:24;101818.0;;;9.23;73.19
68376;BME280;55318;52.068;5.188;2023-01-30T09:49:17;101819.0;;;9.21;73.37
68376;BME280;55318;52.068;5.188;2023-01-30T09:51:17;101817.0;;;9.32;72.41
68376;BME280;55318;52.068;5.188;2023-01-30T09:53:20;101828.0;;;9.51;72.58
68376;BME280;55318;52.068;5.188;2023-01-30T09:55:15;101835.0;;;9.38;71.95
68376;BME280;55318;52.068;5.188;2023-01-30T09:57:00;101833.0;;;9.48;71.83
68376;BME280;55318;52.068;5.188;2023-01-30T09:58:47;101842.0;;;9.49;72.09
68376;BME280;55318;52.068;5.188;2023-01-30T10:02:29;101839.0;;;9.39;72.84
68376;BME280;55318;52.068;5.188;2023-01-30T10:04:23;101848.0;;;9.27;72.52
68376;BME280;55318;52.068;5.188;2023-01-30T10:06:05;101844.0;;;9.27;72.41
68376;BME280;55318;52.068;5.188;2023-01-30T10:07:55;101841.0;;;9.35;72.48
68376;BME280;55318;52.068;5.188;2023-01-30T10:09:44;101838.0;;;9.43;72.5
68376;BME280;55318;52.068;5.188;2023-01-30T10:11:36;101838.0;;;9.38;72.59
68376;BME280;55318;52.068;5.188;2023-01-30T10:13:31;101840.0;;;9.4;72.64
68376;BME280;55318;52.068;5.188;2023-01-30T10:15:22;101846.0;;;9.3;73.03
68376;BME280;55318;52.068;5.188;2023-01-30T10:19:16;101852.0;;;9.13;73.05
68376;BME280;55318;52.068;5.188;2023-01-30T10:21:21;101850.0;;;9.06;73.67
68376;BME280;55318;52.068;5.188;2023-01-30T10:23:19;101867.0;;;9.31;73.48
68376;BME280;55318;52.068;5.188;2023-01-30T10:25:31;101864.0;;;9.31;73.56
68376;BME280;55318;52.068;5.188;2023-01-30T10:27:10;101870.0;;;9.35;73.38
68376;BME280;55318;52.068;5.188;2023-01-30T10:28:55;101876.0;;;9.31;72.74
68376;BME280;55318;52.068;5.188;2023-01-30T10:30:35;101867.0;;;9.41;73.11
68376;BME280;55318;52.068;5.188;2023-01-30T10:32:15;101870.0;;;9.51;73.17
68376;BME280;55318;52.068;5.188;2023-01-30T10:35:38;101861.0;;;9.57;72.62
68376;BME280;55318;52.068;5.188;2023-01-30T10:37:23;101876.0;;;9.47;72.88
68376;BME280;55318;52.068;5.188;2023-01-30T10:39:08;101878.0;;;9.49;72.94
68376;BME280;55318;52.068;5.188;2023-01-30T10:41:03;101880.0;;;9.56;73.14
68376;BME280;55318;52.068;5.188;2023-01-30T10:42:46;101880.0;;;9.42;72.23
68376;BME280;55318;52.068;5.188;2023-01-30T10:44:28;101884.0;;;9.59;71.95
68376;BME280;55318;52.068;5.188;2023-01-30T10:48:16;101880.0;;;9.42;72.49
68376;BME280;55318;52.068;5.188;2023-01-30T10:50:18;101883.0;;;9.42;72.53
68376;BME280;55318;52.068;5.188;2023-01-30T10:52:01;101878.0;;;9.59;73.3
68376;BME280;55318;52.068;5.188;2023-01-30T10:53:52;101890.0;;;9.53;72.34
68376;BME280;55318;52.068;5.188;2023-01-30T10:55:34;101872.0;;;9.41;72.66
68376;BME280;55318;52.068;5.188;2023-01-30T10:57:21;101883.0;;;9.48;72.45
68376;BME280;55318;52.068;5.188;2023-01-30T10:59:20;101877.0;;;9.46;72.69
68376;BME280;55318;52.068;5.188;2023-01-30T11:04:43;101891.0;;;9.26;72.69
68376;BME280;55318;52.068;5.188;2023-01-30T11:06:24;101878.0;;;9.31;73.11
68376;BME280;55318;52.068;5.188;2023-01-30T11:08:02;101874.0;;;9.26;72.19
68376;BME280;55318;52.068;5.188;2023-01-30T11:09:42;101869.0;;;9.34;72.52
68376;BME280;55318;52.068;5.188;2023-01-30T11:13:12;101871.0;;;9.39;72.55
68376;BME280;55318;52.068;5.188;2023-01-30T11:14:52;101868.0;;;9.39;72.39
68376;BME280;55318;52.068;5.188;2023-01-30T11:16:40;101864.0;;;9.6;72.66
68376;BME280;55318;52.068;5.188;2023-01-30T11:18:20;101867.0;;;9.53;72.28
68376;BME280;55318;52.068;5.188;2023-01-30T11:21:46;101882.0;;;9.56;71.92
68376;BME280;55318;52.068;5.188;2023-01-30T11:23:30;101882.0;;;9.53;71.19
68376;BME280;55318;52.068;5.188;2023-01-30T11:25:13;101887.0;;;9.57;71.16
68376;BME280;55318;52.068;5.188;2023-01-30T11:26:52;101880.0;;;9.6;71.02